createdAt,value
2024-03-08T00:00:53.169Z,6.90
2024-03-08T00:03:55.046Z,6.90
2024-03-08T00:06:56.894Z,6.85
2024-03-08T00:09:58.734Z,6.82
2024-03-08T00:13:00.614Z,6.87
2024-03-08T00:16:03.446Z,6.91
2024-03-08T00:19:05.332Z,6.86
2024-03-08T00:22:07.298Z,6.70
2024-03-08T00:25:10.310Z,6.78
2024-03-08T00:28:16.060Z,6.90
2024-03-08T00:31:18.175Z,6.77
2024-03-08T00:34:19.933Z,6.93
2024-03-08T00:37:23.062Z,6.96
2024-03-08T00:40:24.922Z,6.98
2024-03-08T00:43:27.117Z,6.85
2024-03-08T00:46:29.909Z,6.84
2024-03-08T00:49:31.742Z,7.02
2024-03-08T00:52:35.556Z,6.95
2024-03-08T00:55:37.405Z,6.91
2024-03-08T00:58:39.255Z,7.08
2024-03-08T01:01:45.252Z,7.13
2024-03-08T01:04:48.545Z,7.09
2024-03-08T01:07:50.888Z,6.96
2024-03-08T01:10:52.643Z,6.93
2024-03-08T01:13:54.644Z,6.89
2024-03-08T01:16:56.697Z,6.97
2024-03-08T01:19:59.629Z,6.85
2024-03-08T01:23:01.431Z,6.90
2024-03-08T01:26:03.450Z,6.98
2024-03-08T01:29:05.263Z,6.97
2024-03-08T01:32:07.477Z,6.95
2024-03-08T01:35:10.768Z,6.91
2024-03-08T01:38:12.595Z,6.97
2024-03-08T01:41:15.373Z,6.91
2024-03-08T01:44:18.769Z,6.84
2024-03-08T01:47:24.151Z,6.88
2024-03-08T01:50:26.132Z,6.89
2024-03-08T01:53:29.402Z,6.88
2024-03-08T01:56:33.046Z,7.00
2024-03-08T01:59:35.116Z,6.95
2024-03-08T02:02:38.648Z,7.00
2024-03-08T02:05:42.450Z,6.89
2024-03-08T02:08:45.592Z,6.98
2024-03-08T02:11:47.571Z,6.96
2024-03-08T02:14:49.706Z,6.94
2024-03-08T02:17:51.594Z,6.93
2024-03-08T02:21:04.194Z,6.93
2024-03-08T02:24:07.150Z,6.95
2024-03-08T02:27:09.045Z,7.00
2024-03-08T02:30:13.899Z,7.05
2024-03-08T02:33:20.942Z,6.93
2024-03-08T02:36:22.856Z,6.86
2024-03-08T02:39:24.768Z,6.81
2024-03-08T02:42:26.552Z,6.92
2024-03-08T02:45:28.337Z,6.82
2024-03-08T02:48:30.199Z,6.82
2024-03-08T02:51:32.163Z,6.86
2024-03-08T02:54:33.933Z,6.85
2024-03-08T02:57:35.760Z,6.83
2024-03-08T03:00:39.916Z,6.87
2024-03-08T03:03:42.475Z,6.86
2024-03-08T03:06:44.273Z,6.84
2024-03-08T03:09:46.545Z,6.64
2024-03-08T03:12:51.944Z,6.68
2024-03-08T03:15:53.738Z,6.79
2024-03-08T03:18:57.192Z,6.71
2024-03-08T03:21:59.263Z,6.68
2024-03-08T03:25:01.659Z,6.75
2024-03-08T03:28:03.860Z,6.69
2024-03-08T03:31:07.930Z,6.77
2024-03-08T03:34:11.261Z,6.80
2024-03-08T03:37:13.753Z,6.84
2024-03-08T03:40:16.083Z,6.75
2024-03-08T03:43:17.825Z,6.76
2024-03-08T03:46:19.714Z,6.73
2024-03-08T03:49:21.629Z,6.89
2024-03-08T03:52:23.563Z,6.86
2024-03-08T03:55:25.454Z,6.76
2024-03-08T03:58:28.507Z,6.69
2024-03-08T04:01:30.838Z,6.70
2024-03-08T04:04:32.799Z,6.82
2024-03-08T04:07:35.517Z,6.79
2024-03-08T04:10:37.758Z,6.79
2024-03-08T04:13:39.566Z,6.91
2024-03-08T04:16:41.317Z,6.97
2024-03-08T04:19:43.687Z,6.97
2024-03-08T04:22:48.256Z,6.93
2024-03-08T04:25:50.103Z,7.04
2024-03-08T04:28:51.837Z,6.95
2024-03-08T04:31:57.175Z,6.98
2024-03-08T04:34:59.476Z,6.92
2024-03-08T04:38:01.257Z,6.87
2024-03-08T04:41:03.157Z,6.84
2024-03-08T04:44:05.025Z,6.88
2024-03-08T04:47:09.730Z,6.92
2024-03-08T04:50:12.456Z,6.84
2024-03-08T04:53:14.873Z,6.61
2024-03-08T04:56:17.191Z,6.58
2024-03-08T04:59:19.040Z,6.53
2024-03-08T05:02:23.959Z,6.67
2024-03-08T05:05:26.069Z,6.65
2024-03-08T05:08:27.898Z,6.65
2024-03-08T05:11:29.727Z,6.57
2024-03-08T05:14:31.627Z,6.57
2024-03-08T05:17:33.499Z,6.58
2024-03-08T05:20:36.260Z,6.58
2024-03-08T05:23:39.885Z,6.56
2024-03-08T05:26:41.733Z,6.55
2024-03-08T05:29:43.592Z,6.65
2024-03-08T05:32:47.997Z,6.66
2024-03-08T05:35:49.848Z,6.56
2024-03-08T05:38:51.772Z,6.70
2024-03-08T05:41:54.002Z,6.67
2024-03-08T05:44:58.425Z,6.73
2024-03-08T05:48:00.341Z,6.80
2024-03-08T05:51:03.329Z,6.78
2024-03-08T05:54:07.116Z,6.85
2024-03-08T05:57:09.281Z,6.92
2024-03-08T06:00:16.963Z,7.01
2024-03-08T06:03:22.588Z,6.95
2024-03-08T06:06:25.488Z,7.02
2024-03-08T06:09:27.398Z,6.84
2024-03-08T06:12:33.552Z,6.93
2024-03-08T06:15:35.941Z,6.81
2024-03-08T06:18:38.039Z,6.75
2024-03-08T06:21:40.392Z,6.80
2024-03-08T06:24:42.244Z,6.99
2024-03-08T06:27:44.910Z,7.03
2024-03-08T06:30:46.893Z,7.02
2024-03-08T06:33:51.071Z,6.98
2024-03-08T06:36:53.719Z,6.88
2024-03-08T06:39:56.452Z,6.88
2024-03-08T06:42:58.222Z,7.06
2024-03-08T06:46:00.038Z,7.22
2024-03-08T06:49:01.943Z,7.39
2024-03-08T06:52:05.295Z,7.56
2024-03-08T06:55:07.593Z,7.54
2024-03-08T06:58:11.806Z,7.65
2024-03-08T07:01:16.022Z,7.73
2024-03-08T07:04:18.048Z,7.74
2024-03-08T07:07:21.549Z,7.66
2024-03-08T07:10:26.865Z,7.48
2024-03-08T07:13:30.122Z,7.49
2024-03-08T07:16:32.092Z,7.58
2024-03-08T07:19:33.847Z,7.65
2024-03-08T07:22:37.875Z,7.51
2024-03-08T07:25:40.753Z,7.39
2024-03-08T07:28:42.572Z,7.35
2024-03-08T07:32:03.259Z,7.25
2024-03-08T07:35:08.341Z,7.68
2024-03-08T07:38:11.365Z,7.60
2024-03-08T07:41:15.677Z,7.76
2024-03-08T07:44:17.522Z,7.87
2024-03-08T07:47:21.235Z,7.95
2024-03-08T07:50:24.535Z,8.08
2024-03-08T07:53:26.422Z,8.04
2024-03-08T07:56:28.157Z,7.82
2024-03-08T07:59:31.794Z,8.07
2024-03-08T08:02:37.385Z,8.10
2024-03-08T08:05:40.528Z,8.00
2024-03-08T08:08:45.500Z,7.65
2024-03-08T08:11:48.014Z,7.69
2024-03-08T08:14:49.749Z,7.56
2024-03-08T08:17:53.169Z,7.42
2024-03-08T08:20:55.243Z,7.39
2024-03-08T08:23:57.043Z,7.48
2024-03-08T08:26:58.799Z,7.55
2024-03-08T08:30:01.461Z,7.77
2024-03-08T08:33:03.509Z,7.65
2024-03-08T08:36:05.818Z,7.74
2024-03-08T08:39:14.346Z,7.89
2024-03-08T08:42:18.956Z,7.88
2024-03-08T08:45:24.465Z,7.78
2024-03-08T08:48:35.666Z,7.56
2024-03-08T08:51:38.707Z,7.53
2024-03-08T08:54:40.621Z,7.74
2024-03-08T08:57:51.101Z,7.70
2024-03-08T09:00:53.502Z,7.48
2024-03-08T09:03:55.306Z,7.32
2024-03-08T09:06:58.014Z,7.26
2024-03-08T09:10:00.158Z,7.30
2024-03-08T09:13:05.537Z,7.44
2024-03-08T09:16:07.949Z,7.76
2024-03-08T09:19:12.145Z,7.58
2024-03-08T09:22:14.611Z,7.65
2024-03-08T09:25:16.421Z,7.82
2024-03-08T09:28:18.277Z,7.72
2024-03-08T09:31:20.977Z,7.48
2024-03-08T09:34:29.135Z,7.57
2024-03-08T09:37:35.429Z,7.88
2024-03-08T09:40:37.210Z,7.95
2024-03-08T09:43:39.713Z,7.60
2024-03-08T09:46:41.920Z,7.84
2024-03-08T09:49:44.629Z,8.05
2024-03-08T09:52:50.764Z,8.10
2024-03-08T09:55:53.287Z,8.24
2024-03-08T09:59:15.111Z,7.99
2024-03-08T10:02:17.657Z,7.82
2024-03-08T10:05:19.797Z,7.98
2024-03-08T10:08:21.714Z,7.99
2024-03-08T10:11:24.188Z,7.92
2024-03-08T10:14:29.414Z,7.79
2024-03-08T10:17:34.304Z,7.73
2024-03-08T10:20:39.442Z,7.68
2024-03-08T10:23:43.140Z,7.74
2024-03-08T10:26:45.414Z,7.66
2024-03-08T10:29:49.060Z,7.82
2024-03-08T10:32:51.029Z,7.89
2024-03-08T10:36:03.928Z,8.05
2024-03-08T10:39:22.087Z,7.85
2024-03-08T10:42:29.976Z,8.13
2024-03-08T10:45:37.755Z,8.29
2024-03-08T10:48:50.572Z,8.21
2024-03-08T10:51:54.056Z,8.40
2024-03-08T10:55:16.922Z,8.46
2024-03-08T10:58:28.277Z,8.20
2024-03-08T11:01:31.107Z,8.37
2024-03-08T11:04:34.654Z,8.52
2024-03-08T11:07:36.678Z,8.49
2024-03-08T11:10:48.835Z,8.58
2024-03-08T11:13:50.752Z,8.41
2024-03-08T11:16:52.682Z,8.38
2024-03-08T11:20:07.101Z,8.47
2024-03-08T11:23:12.691Z,8.36
2024-03-08T11:26:21.703Z,8.25
2024-03-08T11:29:33.767Z,8.26
2024-03-08T11:32:37.648Z,7.87
2024-03-08T11:35:39.937Z,7.83
2024-03-08T11:38:42.950Z,7.89
2024-03-08T11:41:46.634Z,7.90
2024-03-08T11:44:49.155Z,7.85
2024-03-08T11:47:51.825Z,8.03
2024-03-08T11:51:03.094Z,7.88
2024-03-08T11:54:05.267Z,7.88
2024-03-08T11:57:07.568Z,7.65
2024-03-08T12:00:22.856Z,7.72
2024-03-08T12:03:24.699Z,7.94
2024-03-08T12:06:28.205Z,7.95
2024-03-08T12:09:30.503Z,7.82
2024-03-08T12:12:33.861Z,7.76
2024-03-08T12:15:35.877Z,7.99
2024-03-08T12:18:39.804Z,8.00
2024-03-08T12:21:49.659Z,8.15
2024-03-08T12:25:06.669Z,8.26
2024-03-08T12:28:14.648Z,8.30
2024-03-08T12:31:26.961Z,8.41
2024-03-08T12:34:29.587Z,8.48
2024-03-08T12:37:32.568Z,8.51
2024-03-08T12:40:36.226Z,8.77
2024-03-08T12:43:38.350Z,8.58
2024-03-08T12:46:41.587Z,8.53
2024-03-08T12:49:43.550Z,8.27
2024-03-08T12:52:45.454Z,8.25
2024-03-08T12:55:47.351Z,8.29
2024-03-08T12:58:49.405Z,8.20
2024-03-08T13:01:52.752Z,8.07
2024-03-08T13:05:00.376Z,8.02
2024-03-08T13:08:23.077Z,8.06
2024-03-08T13:11:30.927Z,8.22
2024-03-08T13:14:34.375Z,8.32
2024-03-08T13:17:36.194Z,8.35
2024-03-08T13:20:46.904Z,8.28
2024-03-08T13:23:50.669Z,8.39
2024-03-08T13:26:52.487Z,8.30
2024-03-08T13:29:54.321Z,8.11
2024-03-08T13:32:56.497Z,8.05
2024-03-08T13:36:04.566Z,8.09
2024-03-08T13:39:16.357Z,8.06
2024-03-08T13:42:18.392Z,7.74
2024-03-08T13:45:25.085Z,7.78
2024-03-08T13:48:27.466Z,8.01
2024-03-08T13:51:29.214Z,8.18
2024-03-08T13:54:32.607Z,8.26
2024-03-08T13:57:34.736Z,8.31
2024-03-08T14:00:37.802Z,8.11
2024-03-08T14:03:42.749Z,8.02
2024-03-08T14:06:46.138Z,7.99
2024-03-08T14:09:47.986Z,7.97
2024-03-08T14:12:51.840Z,8.12
2024-03-08T14:15:54.097Z,8.27
2024-03-08T14:18:55.914Z,8.23
2024-03-08T14:22:00.332Z,8.36
2024-03-08T14:25:08.905Z,8.58
2024-03-08T14:28:13.577Z,8.47
2024-03-08T14:31:19.940Z,8.49
2024-03-08T14:34:22.078Z,8.43
2024-03-08T14:37:29.324Z,8.37
2024-03-08T14:40:31.822Z,8.42
2024-03-08T14:43:33.714Z,8.33
2024-03-08T14:46:36.352Z,8.34
2024-03-08T14:49:39.365Z,8.44
2024-03-08T14:52:41.434Z,8.49
2024-03-08T14:55:44.089Z,8.55
2024-03-08T14:58:47.633Z,8.55
2024-03-08T15:01:49.521Z,8.59
2024-03-08T15:04:58.461Z,8.58
2024-03-08T15:08:11.140Z,8.51
2024-03-08T15:11:22.412Z,8.45
2024-03-08T15:14:26.171Z,8.25
2024-03-08T15:17:28.020Z,8.30
2024-03-08T15:20:31.414Z,8.43
2024-03-08T15:23:37.395Z,8.36
2024-03-08T15:26:39.853Z,8.29
2024-03-08T15:29:41.911Z,8.41
2024-03-08T15:32:47.265Z,8.39
2024-03-08T15:36:00.722Z,8.47
2024-03-08T15:39:04.118Z,8.59
2024-03-08T15:42:06.690Z,8.57
2024-03-08T15:45:10.030Z,8.54
2024-03-08T15:48:11.855Z,8.58
2024-03-08T15:51:14.702Z,8.62
2024-03-08T15:54:16.948Z,8.66
2024-03-08T15:57:21.689Z,8.69
2024-03-08T16:00:43.080Z,8.69
2024-03-08T16:03:50.765Z,8.73
2024-03-08T16:06:52.734Z,8.78
2024-03-08T16:09:54.755Z,8.76
2024-03-08T16:12:57.549Z,8.81
2024-03-08T16:16:02.081Z,8.71
2024-03-08T16:19:08.450Z,8.75
2024-03-08T16:22:10.340Z,8.75
2024-03-08T16:25:14.421Z,8.77
2024-03-08T16:28:16.512Z,8.71
2024-03-08T16:31:18.344Z,8.56
2024-03-08T16:34:21.558Z,8.49
2024-03-08T16:37:26.219Z,8.53
2024-03-08T16:40:28.959Z,8.52
2024-03-08T16:43:31.107Z,8.56
2024-03-08T16:46:35.785Z,8.55
2024-03-08T16:49:43.493Z,8.56
2024-03-08T16:52:45.709Z,8.54
2024-03-08T16:55:52.638Z,8.57
2024-03-08T16:58:55.265Z,8.53
2024-03-08T17:01:57.218Z,8.54
2024-03-08T17:04:59.154Z,8.56
2024-03-08T17:08:05.946Z,8.55
2024-03-08T17:11:12.452Z,8.59
2024-03-08T17:14:14.290Z,8.56
2024-03-08T17:17:17.548Z,8.55
2024-03-08T17:20:23.408Z,8.57
2024-03-08T17:23:25.366Z,8.56
2024-03-08T17:26:27.383Z,8.53
2024-03-08T17:29:29.217Z,8.54
2024-03-08T17:32:34.677Z,8.58
2024-03-08T17:35:39.322Z,8.54
2024-03-08T17:38:51.736Z,8.57
2024-03-08T17:41:55.064Z,8.52
2024-03-08T17:45:00.080Z,8.53
2024-03-08T17:48:04.933Z,8.54
2024-03-08T17:51:06.764Z,8.55
2024-03-08T17:54:12.048Z,8.52
2024-03-08T17:57:15.617Z,8.51
2024-03-08T18:00:19.313Z,8.51
2024-03-08T18:03:28.827Z,8.49
2024-03-08T18:06:30.976Z,8.45
2024-03-08T18:09:32.741Z,8.46
2024-03-08T18:12:36.161Z,8.47
2024-03-08T18:15:37.967Z,8.46
2024-03-08T18:18:39.689Z,8.47
2024-03-08T18:21:41.474Z,8.44
2024-03-08T18:24:46.283Z,8.39
2024-03-08T18:27:48.084Z,8.37
2024-03-08T18:30:50.903Z,8.40
2024-03-08T18:33:52.834Z,8.45
2024-03-08T18:36:55.100Z,8.41
2024-03-08T18:39:57.375Z,8.41
2024-03-08T18:42:59.285Z,8.37
2024-03-08T18:46:02.368Z,8.38
2024-03-08T18:49:06.236Z,8.38
2024-03-08T18:52:08.501Z,8.43
2024-03-08T18:55:10.921Z,8.36
2024-03-08T18:58:12.874Z,8.32
2024-03-08T19:01:14.799Z,8.32
2024-03-08T19:04:17.227Z,8.27
2024-03-08T19:07:23.224Z,8.26
2024-03-08T19:10:26.648Z,8.01
2024-03-08T19:13:28.877Z,8.07
2024-03-08T19:16:30.734Z,8.11
2024-03-08T19:19:35.878Z,8.16
2024-03-08T19:22:38.932Z,8.17
2024-03-08T19:25:45.851Z,8.18
2024-03-08T19:28:48.187Z,8.16
2024-03-08T19:31:50.858Z,8.13
2024-03-08T19:34:53.167Z,8.10
2024-03-08T19:37:56.788Z,8.06
2024-03-08T19:40:58.768Z,8.14
2024-03-08T19:44:00.781Z,8.20
2024-03-08T19:47:05.614Z,8.14
2024-03-08T19:50:10.221Z,8.07
2024-03-08T19:53:12.718Z,8.10
2024-03-08T19:56:14.598Z,8.11
2024-03-08T19:59:16.677Z,8.08
2024-03-08T20:02:19.209Z,8.08
2024-03-08T20:05:22.238Z,8.04
2024-03-08T20:08:29.813Z,8.21
2024-03-08T20:11:33.314Z,8.16
2024-03-08T20:14:36.347Z,8.20
2024-03-08T20:17:39.745Z,8.07
2024-03-08T20:20:44.246Z,8.16
2024-03-08T20:23:46.613Z,8.25
2024-03-08T20:26:48.341Z,8.13
2024-03-08T20:29:50.378Z,8.21
2024-03-08T20:32:55.613Z,8.03
2024-03-08T20:35:57.442Z,8.13
2024-03-08T20:38:59.213Z,8.02
2024-03-08T20:42:01.338Z,8.09
2024-03-08T20:45:04.474Z,8.16
2024-03-08T20:48:07.637Z,8.09
2024-03-08T20:51:09.635Z,8.06
2024-03-08T20:54:11.397Z,8.03
2024-03-08T20:57:14.185Z,8.03
2024-03-08T21:00:20.488Z,8.08
2024-03-08T21:03:24.701Z,8.17
2024-03-08T21:06:26.713Z,8.18
2024-03-08T21:09:32.035Z,8.17
2024-03-08T21:12:34.278Z,8.13
2024-03-08T21:15:36.761Z,8.13
2024-03-08T21:18:39.998Z,8.13
2024-03-08T21:21:42.157Z,8.14
2024-03-08T21:24:44.145Z,8.02
2024-03-08T21:27:48.909Z,8.05
2024-03-08T21:30:51.675Z,8.06
2024-03-08T21:33:54.535Z,8.02
2024-03-08T21:36:57.938Z,8.11
2024-03-08T21:40:01.161Z,8.10
2024-03-08T21:43:04.721Z,8.00
2024-03-08T21:46:06.822Z,8.05
2024-03-08T21:49:08.556Z,7.98
2024-03-08T21:52:10.310Z,8.02
2024-03-08T21:55:13.028Z,7.94
2024-03-08T21:58:14.867Z,7.98
2024-03-08T22:01:18.618Z,7.99
2024-03-08T22:04:24.107Z,7.97
2024-03-08T22:07:25.933Z,7.94
2024-03-08T22:10:30.763Z,7.92
2024-03-08T22:13:32.916Z,7.89
2024-03-08T22:16:36.581Z,7.86
2024-03-08T22:19:38.501Z,7.77
2024-03-08T22:22:41.908Z,7.78
2024-03-08T22:25:43.858Z,7.78
2024-03-08T22:28:48.142Z,7.76
2024-03-08T22:31:50.717Z,7.67
2024-03-08T22:34:52.543Z,7.67
2024-03-08T22:37:55.474Z,7.66
2024-03-08T22:40:59.546Z,7.65
2024-03-08T22:44:01.530Z,7.64
2024-03-08T22:47:04.839Z,7.65
2024-03-08T22:50:09.330Z,7.59
2024-03-08T22:53:14.745Z,7.64
2024-03-08T22:56:16.796Z,7.70
2024-03-08T22:59:18.892Z,7.68
2024-03-08T23:02:21.568Z,7.61
2024-03-08T23:05:23.963Z,7.62
2024-03-08T23:08:30.718Z,7.67
2024-03-08T23:11:32.560Z,7.68
2024-03-08T23:14:34.373Z,7.66
2024-03-08T23:17:44.936Z,7.64
2024-03-08T23:20:50.026Z,7.60
2024-03-08T23:23:52.163Z,7.63
2024-03-08T23:26:54.122Z,7.60
2024-03-08T23:29:57.650Z,7.63
2024-03-08T23:32:59.524Z,7.61
2024-03-08T23:36:01.572Z,7.57
2024-03-08T23:39:03.665Z,7.53
2024-03-08T23:42:05.925Z,7.52
2024-03-08T23:45:12.601Z,7.55
2024-03-08T23:48:15.853Z,7.51
2024-03-08T23:51:19.341Z,7.46
2024-03-08T23:54:23.644Z,7.47
2024-03-08T23:57:25.468Z,7.46
